Time;durP1;ratioP1;P1;durP2;ratioP2;P2;SDS_P1;SDS_P2;PMS_P1;PMS_P2;Temp;Humidity;BMP_temperature;BMP_pressure;BME280_temperature;BME280_humidity;BME280_pressure;Samples;Min_cycle;Max_cycle;Signal;HPM_P1;HPM_P2
2022/05/19 00:01:26;;;;;;;29.40;27.60;;;19.10;71.80;;;;;;5076044;28;20781;-73
2022/05/19 00:03:53;;;;;;;30.20;28.30;;;19.00;72.10;;;;;;5073687;28;20951;-73
2022/05/19 00:06:20;;;;;;;28.70;27.10;;;19.00;72.30;;;;;;5081457;28;20496;-78
2022/05/19 00:08:47;;;;;;;29.13;27.47;;;18.90;72.50;;;;;;5084758;28;20470;-73
2022/05/19 00:11:18;;;;;;;29.80;27.80;;;18.90;72.70;;;;;;5079078;28;20469;-73
2022/05/19 00:13:46;;;;;;;29.33;27.63;;;18.80;72.90;;;;;;5085510;28;20453;-75
2022/05/19 00:16:13;;;;;;;29.13;27.33;;;18.70;73.00;;;;;;5080496;28;20461;-73
2022/05/19 00:18:40;;;;;;;28.60;27.03;;;18.70;73.10;;;;;;5095792;28;20457;-74
2022/05/19 00:21:07;;;;;;;28.97;27.20;;;18.70;73.30;;;;;;5081641;28;20458;-79
2022/05/19 00:23:34;;;;;;;29.33;27.63;;;18.70;73.40;;;;;;5079738;28;20541;-73
2022/05/19 00:26:01;;;;;;;28.97;27.27;;;18.70;73.30;;;;;;5084826;28;20485;-73
2022/05/19 00:28:28;;;;;;;30.83;29.03;;;18.60;73.70;;;;;;5082778;28;20455;-72
2022/05/19 00:30:56;;;;;;;28.80;27.10;;;18.50;73.90;;;;;;5076229;28;20550;-75
2022/05/19 00:33:23;;;;;;;28.80;27.10;;;18.30;74.50;;;;;;5079983;28;20950;-75
2022/05/19 00:35:50;;;;;;;29.00;27.20;;;18.20;74.80;;;;;;5079683;28;20470;-76
2022/05/19 00:38:17;;;;;;;29.80;28.00;;;18.20;75.00;;;;;;5083735;28;20468;-73
2022/05/19 00:40:49;;;;;;;30.10;28.40;;;18.10;75.30;;;;;;5065290;28;20975;-76
2022/05/19 00:43:16;;;;;;;31.17;29.20;;;18.10;75.50;;;;;;5066975;28;20454;-74
2022/05/19 00:45:52;;;;;;;28.90;27.30;;;18.00;75.80;;;;;;5073637;28;20501;-74
2022/05/19 00:48:24;;;;;;;29.37;27.67;;;18.00;75.80;;;;;;5096635;28;20464;-71
2022/05/19 00:50:56;;;;;;;29.77;28.17;;;18.00;75.80;;;;;;5078514;28;20453;-72
2022/05/19 00:53:31;;;;;;;29.37;27.37;;;18.00;75.80;;;;;;5079798;28;20455;-73
2022/05/19 00:56:04;;;;;;;28.90;27.10;;;17.90;75.70;;;;;;5081273;28;21009;-73
2022/05/19 00:58:35;;;;;;;29.20;27.50;;;17.80;76.00;;;;;;5083199;28;20460;-73
2022/05/19 01:01:03;;;;;;;28.93;27.33;;;17.80;76.10;;;;;;5072303;28;20454;-74
2022/05/19 01:03:36;;;;;;;29.53;27.93;;;17.80;76.10;;;;;;5067983;28;20474;-73
2022/05/19 01:06:10;;;;;;;28.80;26.80;;;17.80;76.30;;;;;;5082452;28;20488;-73
2022/05/19 01:08:43;;;;;;;28.93;27.23;;;17.70;76.60;;;;;;5088003;28;20471;-76
2022/05/19 01:11:10;;;;;;;29.13;27.43;;;17.60;76.50;;;;;;5077514;28;20727;-74
2022/05/19 01:13:37;;;;;;;29.50;27.80;;;17.60;76.70;;;;;;5087783;28;20445;-72
2022/05/19 01:16:06;;;;;;;29.93;28.23;;;17.50;77.00;;;;;;5083748;28;20465;-73
2022/05/19 01:18:37;;;;;;;30.47;28.57;;;17.40;77.50;;;;;;5078938;28;20497;-72
2022/05/19 01:21:07;;;;;;;30.00;28.30;;;17.40;77.70;;;;;;5080842;28;20470;-73
2022/05/19 01:23:44;;;;;;;29.93;28.23;;;17.40;77.50;;;;;;5076232;28;20768;-75
2022/05/19 01:26:22;;;;;;;29.47;27.73;;;17.30;77.50;;;;;;5080459;28;20474;-77
2022/05/19 01:28:50;;;;;;;30.60;28.70;;;17.30;77.50;;;;;;5077005;28;20461;-74
2022/05/19 01:31:29;;;;;;;30.20;28.40;;;17.30;77.50;;;;;;5091403;28;20452;-72
2022/05/19 01:33:55;;;;;;;29.33;27.53;;;17.30;77.50;;;;;;5078196;28;20825;-74
2022/05/19 01:36:22;;;;;;;29.80;28.10;;;17.30;77.70;;;;;;5083104;28;20455;-73
2022/05/19 01:38:57;;;;;;;31.30;29.40;;;17.20;77.90;;;;;;5094625;28;20460;-72
2022/05/19 01:41:33;;;;;;;31.63;29.67;;;17.10;78.20;;;;;;5087046;28;20453;-73
2022/05/19 01:44:13;;;;;;;30.60;28.83;;;17.10;78.40;;;;;;5086079;28;20532;-73
2022/05/19 01:46:41;;;;;;;30.87;28.97;;;17.10;78.50;;;;;;5072531;28;20477;-73
2022/05/19 01:49:14;;;;;;;29.10;27.33;;;17.00;78.40;;;;;;5089567;28;20465;-72
2022/05/19 01:51:45;;;;;;;29.33;27.53;;;17.00;78.40;;;;;;5085239;28;20461;-74
2022/05/19 01:54:17;;;;;;;28.83;27.00;;;17.10;78.10;;;;;;5086098;28;20481;-72
2022/05/19 01:56:53;;;;;;;28.40;26.70;;;17.00;78.00;;;;;;5088039;28;20462;-72
2022/05/19 01:59:28;;;;;;;30.23;28.37;;;17.10;77.70;;;;;;5084659;28;20473;-72
2022/05/19 02:02:01;;;;;;;31.00;29.10;;;17.00;77.80;;;;;;5082330;28;20808;-72
2022/05/19 02:04:33;;;;;;;29.13;27.53;;;16.90;78.20;;;;;;5075601;28;20914;-78
2022/05/19 02:07:04;;;;;;;30.23;28.20;;;16.90;78.00;;;;;;5070133;28;20478;-77
2022/05/19 02:09:37;;;;;;;30.10;28.20;;;16.90;77.80;;;;;;5074737;28;20469;-73
2022/05/19 02:12:05;;;;;;;29.57;27.97;;;16.80;78.20;;;;;;5077002;28;20835;-72
2022/05/19 02:14:37;;;;;;;29.90;28.10;;;16.70;78.40;;;;;;5090128;28;20473;-70
2022/05/19 02:17:08;;;;;;;28.97;27.27;;;16.70;78.50;;;;;;5077518;28;20459;-71
2022/05/19 02:19:40;;;;;;;28.60;26.60;;;16.70;78.40;;;;;;5082925;28;20454;-73
2022/05/19 02:22:09;;;;;;;27.43;25.93;;;16.70;78.20;;;;;;5084458;28;20476;-75
2022/05/19 02:24:40;;;;;;;34.13;32.13;;;16.70;78.10;;;;;;5078879;28;20577;-75
2022/05/19 02:27:32;;;;;;;28.10;26.50;;;16.60;78.20;;;;;;5093331;28;20480;-73
2022/05/19 02:30:03;;;;;;;29.13;27.37;;;16.60;78.20;;;;;;5084017;28;20453;-74
2022/05/19 02:32:30;;;;;;;29.87;27.73;;;16.60;77.90;;;;;;5083524;28;20446;-75
2022/05/19 02:34:56;;;;;;;28.77;27.07;;;16.60;77.70;;;;;;5076004;28;20473;-74
2022/05/19 02:37:24;;;;;;;28.60;26.90;;;16.50;77.30;;;;;;5083351;28;20965;-73
2022/05/19 02:39:50;;;;;;;29.10;27.43;;;16.60;77.70;;;;;;5074191;28;20455;-73
2022/05/19 02:42:17;;;;;;;29.37;27.67;;;16.50;77.70;;;;;;5077914;28;20454;-72
2022/05/19 02:44:44;;;;;;;28.43;26.70;;;16.60;77.90;;;;;;5079128;28;20829;-79
2022/05/19 02:47:12;;;;;;;28.93;27.03;;;16.50;77.90;;;;;;5089473;28;20481;-73
2022/05/19 02:49:39;;;;;;;29.07;27.40;;;16.50;77.90;;;;;;5079811;28;20456;-73
2022/05/19 02:52:07;;;;;;;29.30;27.50;;;16.60;77.80;;;;;;5096133;28;20465;-72
2022/05/19 02:54:34;;;;;;;29.90;27.87;;;16.50;78.20;;;;;;5083742;28;20863;-74
2022/05/19 02:57:00;;;;;;;28.97;27.37;;;16.50;78.30;;;;;;5080172;28;20963;-74
2022/05/19 02:59:27;;;;;;;29.07;27.47;;;16.40;78.40;;;;;;5077149;28;20493;-74
2022/05/19 03:01:57;;;;;;;29.00;27.30;;;16.40;78.50;;;;;;5078839;28;20457;-73
2022/05/19 03:04:25;;;;;;;30.73;28.87;;;16.30;78.80;;;;;;5079549;28;20551;-74
2022/05/19 03:06:53;;;;;;;29.07;27.37;;;16.30;78.70;;;;;;5085511;28;20477;-72
2022/05/19 03:09:20;;;;;;;29.57;27.87;;;16.20;78.90;;;;;;5079092;28;20474;-73
2022/05/19 03:11:47;;;;;;;33.67;31.77;;;16.00;79.80;;;;;;5077072;28;20464;-72
2022/05/19 03:14:14;;;;;;;30.30;28.30;;;16.10;79.70;;;;;;5084109;28;20482;-78
2022/05/19 03:16:42;;;;;;;29.87;27.67;;;16.10;79.80;;;;;;5071252;28;21081;-72
2022/05/19 03:19:10;;;;;;;30.53;28.73;;;16.00;79.80;;;;;;5077877;28;20956;-75
2022/05/19 03:21:38;;;;;;;28.80;27.20;;;15.90;80.10;;;;;;5076346;28;20457;-70
2022/05/19 03:24:06;;;;;;;29.60;27.80;;;16.00;79.80;;;;;;5084745;28;20462;-70
2022/05/19 03:26:33;;;;;;;30.17;28.43;;;16.00;79.70;;;;;;5079422;28;20481;-71
2022/05/19 03:29:00;;;;;;;29.63;27.83;;;16.00;79.90;;;;;;5086418;28;20449;-69
2022/05/19 03:31:27;;;;;;;31.03;29.20;;;16.00;79.60;;;;;;5080420;28;20505;-70
2022/05/19 03:33:54;;;;;;;30.40;28.70;;;16.00;79.80;;;;;;5076571;28;20454;-71
2022/05/19 03:36:21;;;;;;;31.37;29.17;;;16.00;79.60;;;;;;5080663;28;20536;-70
2022/05/19 03:38:49;;;;;;;29.77;27.90;;;16.00;79.60;;;;;;5086289;28;20468;-70
2022/05/19 03:41:16;;;;;;;29.60;27.70;;;16.00;79.40;;;;;;5099300;28;21035;-71
2022/05/19 03:43:43;;;;;;;29.43;27.70;;;16.00;79.40;;;;;;5086318;28;20457;-71
2022/05/19 03:46:10;;;;;;;30.40;28.30;;;15.90;79.40;;;;;;5084578;28;21036;-70
2022/05/19 03:48:38;;;;;;;28.07;26.57;;;15.90;79.40;;;;;;5081470;28;20473;-70
2022/05/19 03:51:10;;;;;;;29.90;28.10;;;16.00;79.20;;;;;;5069905;28;20807;-71
2022/05/19 03:53:37;;;;;;;37.37;34.70;;;16.00;79.10;;;;;;5072966;28;20795;-71
2022/05/19 03:56:06;;;;;;;30.80;28.93;;;16.00;79.20;;;;;;5084161;28;20838;-71
2022/05/19 03:58:33;;;;;;;34.70;32.40;;;16.10;78.90;;;;;;5082797;28;20506;-71
2022/05/19 04:01:00;;;;;;;30.40;28.70;;;16.20;78.90;;;;;;5083093;28;20446;-70
2022/05/19 04:03:27;;;;;;;33.90;32.20;;;16.20;78.80;;;;;;5078374;28;20502;-70
2022/05/19 04:05:54;;;;;;;30.40;28.50;;;16.20;78.50;;;;;;5082406;28;20478;-70
2022/05/19 04:08:21;;;;;;;33.07;31.03;;;16.40;78.10;;;;;;5082895;28;20465;-71
2022/05/19 04:10:50;;;;;;;29.27;27.57;;;16.40;77.90;;;;;;5085941;28;20552;-71
2022/05/19 04:13:19;;;;;;;32.57;30.47;;;16.40;77.80;;;;;;5083467;28;20461;-71
2022/05/19 04:15:46;;;;;;;29.50;27.70;;;16.50;77.50;;;;;;5080330;28;20484;-70
2022/05/19 04:18:14;;;;;;;28.80;27.10;;;16.70;76.80;;;;;;5070010;28;20450;-70
2022/05/19 04:20:41;;;;;;;29.90;28.00;;;16.70;76.40;;;;;;5068147;28;20461;-70
2022/05/19 04:23:09;;;;;;;31.73;29.83;;;16.60;76.90;;;;;;5077085;28;20460;-70
2022/05/19 04:25:36;;;;;;;29.90;28.10;;;16.70;76.90;;;;;;5070415;28;20868;-71
2022/05/19 04:28:03;;;;;;;29.80;28.00;;;16.80;76.30;;;;;;5084687;28;21034;-70
2022/05/19 04:30:31;;;;;;;29.40;27.70;;;16.80;76.30;;;;;;5079017;28;20553;-70
2022/05/19 04:32:59;;;;;;;29.27;27.40;;;16.70;76.60;;;;;;5076874;28;20458;-70
2022/05/19 04:35:26;;;;;;;30.03;28.23;;;16.70;76.50;;;;;;5076702;28;21015;-70
2022/05/19 04:37:53;;;;;;;31.60;29.57;;;16.70;76.60;;;;;;5085408;28;20476;-71
2022/05/19 04:40:20;;;;;;;29.43;27.70;;;16.90;76.30;;;;;;5078718;28;20541;-72
2022/05/19 04:42:47;;;;;;;31.60;29.50;;;17.00;75.80;;;;;;5066404;28;20493;-70
2022/05/19 04:45:17;;;;;;;32.93;30.80;;;17.20;75.00;;;;;;5071170;28;20566;-71
2022/05/19 04:47:45;;;;;;;29.10;27.50;;;17.40;74.10;;;;;;5078223;28;20484;-71
2022/05/19 04:50:13;;;;;;;29.73;28.00;;;17.60;73.60;;;;;;5080677;28;20454;-76
2022/05/19 04:52:41;;;;;;;30.73;28.90;;;17.70;72.70;;;;;;5074101;28;20455;-71
2022/05/19 04:55:09;;;;;;;31.80;29.80;;;17.90;72.00;;;;;;5078862;28;20474;-71
2022/05/19 04:57:37;;;;;;;29.73;28.03;;;17.90;71.70;;;;;;5081170;28;20460;-77
2022/05/19 05:00:06;;;;;;;31.10;29.40;;;18.10;71.10;;;;;;5088849;28;20552;-74
2022/05/19 05:02:33;;;;;;;30.10;28.40;;;18.30;70.40;;;;;;5088580;28;22379;-74
2022/05/19 05:05:01;;;;;;;31.40;29.50;;;18.40;70.20;;;;;;5091142;28;20488;-73
2022/05/19 05:07:31;;;;;;;31.10;29.37;;;18.50;70.20;;;;;;5087392;28;20480;-73
2022/05/19 05:09:58;;;;;;;31.33;29.33;;;18.70;69.60;;;;;;5090642;28;20461;-71
2022/05/19 05:12:25;;;;;;;30.47;28.70;;;18.80;69.60;;;;;;5085029;28;20456;-75
2022/05/19 05:14:53;;;;;;;30.77;29.07;;;18.80;69.30;;;;;;5091317;28;20477;-76
2022/05/19 05:17:21;;;;;;;29.00;27.30;;;18.70;69.40;;;;;;5078418;28;20449;-72
2022/05/19 05:19:48;;;;;;;32.67;30.50;;;18.80;69.50;;;;;;5084369;28;20484;-70
2022/05/19 05:22:17;;;;;;;30.00;28.40;;;19.00;69.30;;;;;;5081430;28;20464;-71
2022/05/19 05:24:43;;;;;;;31.50;29.50;;;19.10;69.50;;;;;;5076233;28;20476;-71
2022/05/19 05:27:10;;;;;;;32.50;30.43;;;19.20;69.40;;;;;;5081555;28;21033;-71
2022/05/19 05:29:38;;;;;;;31.43;29.43;;;19.40;68.80;;;;;;5085013;28;20450;-71
2022/05/19 05:32:06;;;;;;;31.50;29.70;;;19.50;68.30;;;;;;5090195;28;20507;-72
2022/05/19 05:34:32;;;;;;;30.43;28.60;;;19.60;68.10;;;;;;5083317;28;20484;-71
2022/05/19 05:36:59;;;;;;;33.33;31.33;;;19.70;67.50;;;;;;5085283;28;20454;-72
2022/05/19 05:39:27;;;;;;;32.63;30.83;;;19.80;67.10;;;;;;5071924;28;20470;-75
2022/05/19 05:41:55;;;;;;;31.10;28.90;;;19.80;67.10;;;;;;5073878;28;20548;-71
2022/05/19 05:44:22;;;;;;;30.83;28.83;;;19.80;66.70;;;;;;5072358;28;21257;-72
2022/05/19 05:46:49;;;;;;;29.97;28.27;;;19.90;66.20;;;;;;5081715;28;20453;-72
2022/05/19 05:49:18;;;;;;;31.97;30.10;;;19.80;65.70;;;;;;5098402;28;20450;-71
2022/05/19 05:51:46;;;;;;;30.27;28.27;;;19.70;65.70;;;;;;5083594;28;20506;-71
2022/05/19 05:54:13;;;;;;;29.73;27.83;;;19.90;65.90;;;;;;5073167;28;20473;-71
2022/05/19 05:56:41;;;;;;;29.60;27.90;;;20.00;65.70;;;;;;5079910;28;20496;-72
2022/05/19 05:59:08;;;;;;;29.50;27.80;;;20.10;65.30;;;;;;5098776;28;20455;-71
2022/05/19 06:01:35;;;;;;;29.70;27.73;;;20.20;64.90;;;;;;5072015;28;20450;-71
2022/05/19 06:04:02;;;;;;;30.33;28.13;;;20.30;64.60;;;;;;5071268;28;20573;-71
2022/05/19 06:06:30;;;;;;;31.97;29.93;;;20.50;64.10;;;;;;5079983;28;20457;-72
2022/05/19 06:08:57;;;;;;;29.70;27.90;;;20.60;63.60;;;;;;5087289;28;20474;-71
2022/05/19 06:11:24;;;;;;;32.67;30.57;;;20.70;63.30;;;;;;5080948;28;20484;-71
2022/05/19 06:13:52;;;;;;;34.50;31.93;;;20.80;63.00;;;;;;5080804;28;20492;-70
2022/05/19 06:16:20;;;;;;;30.70;28.73;;;20.70;63.10;;;;;;5086942;28;20951;-72
2022/05/19 06:18:47;;;;;;;30.17;28.27;;;20.70;63.40;;;;;;5087017;28;20460;-72
2022/05/19 06:21:14;;;;;;;30.70;28.90;;;20.80;63.50;;;;;;5089360;28;20456;-71
2022/05/19 06:23:41;;;;;;;30.97;28.83;;;20.90;63.00;;;;;;5090828;28;20536;-73
2022/05/19 06:26:08;;;;;;;33.60;31.60;;;21.00;63.40;;;;;;5090611;28;20473;-71
2022/05/19 06:28:35;;;;;;;31.03;28.97;;;21.10;63.40;;;;;;5070553;28;20474;-74
2022/05/19 06:31:05;;;;;;;31.50;29.50;;;21.30;62.30;;;;;;5087531;28;20549;-72
2022/05/19 06:33:35;;;;;;;32.70;30.70;;;21.40;62.40;;;;;;5091140;28;20457;-73
2022/05/19 06:36:03;;;;;;;31.77;29.33;;;21.50;62.30;;;;;;5088553;28;21300;-71
2022/05/19 06:38:31;;;;;;;31.30;29.43;;;21.70;62.30;;;;;;5095921;28;20455;-73
2022/05/19 06:42:00;;;;;;;31.60;29.50;;;21.80;62.10;;;;;;5074698;28;20461;-73
2022/05/19 06:43:47;;;;;;;30.73;28.90;;;21.90;61.90;;;;;;5084338;28;20443;-72
2022/05/19 06:46:16;;;;;;;31.67;29.80;;;22.00;61.40;;;;;;5088212;28;20527;-73
2022/05/19 06:48:43;;;;;;;30.20;28.43;;;22.20;61.30;;;;;;5090109;28;20488;-77
2022/05/19 06:51:10;;;;;;;30.07;28.27;;;22.30;60.40;;;;;;5096268;28;20460;-75
2022/05/19 06:53:37;;;;;;;30.00;28.23;;;22.30;60.60;;;;;;5106312;28;20463;-73
2022/05/19 06:56:08;;;;;;;33.10;30.90;;;22.50;59.50;;;;;;5070474;28;20505;-75
2022/05/19 06:58:35;;;;;;;33.80;31.70;;;22.60;59.20;;;;;;5070666;28;20446;-73
2022/05/19 07:01:02;;;;;;;30.73;28.90;;;22.80;58.80;;;;;;5080558;28;20469;-73
2022/05/19 07:03:30;;;;;;;30.20;28.50;;;22.80;58.90;;;;;;5069898;28;20474;-75
2022/05/19 07:05:57;;;;;;;31.47;29.47;;;22.90;59.20;;;;;;5070566;28;20480;-73
2022/05/19 07:08:25;;;;;;;31.17;29.10;;;23.00;58.50;;;;;;5079504;28;20487;-72
2022/05/19 07:10:53;;;;;;;31.00;29.20;;;23.10;58.10;;;;;;5081582;28;20541;-77
2022/05/19 07:13:20;;;;;;;32.90;30.67;;;23.20;57.80;;;;;;5081207;28;20443;-71
2022/05/19 07:15:46;;;;;;;33.13;30.93;;;23.30;57.50;;;;;;5086783;28;20484;-76
2022/05/19 07:18:13;;;;;;;31.50;29.67;;;23.50;57.10;;;;;;5079690;28;20454;-74
2022/05/19 07:20:43;;;;;;;31.23;29.43;;;23.60;56.90;;;;;;5087468;28;20456;-74
2022/05/19 07:23:14;;;;;;;32.57;30.67;;;23.60;56.90;;;;;;5090279;28;20522;-71
2022/05/19 07:25:42;;;;;;;31.70;29.77;;;23.80;56.80;;;;;;5093785;28;20470;-74
2022/05/19 07:28:09;;;;;;;32.13;30.00;;;23.90;56.80;;;;;;5090192;28;21014;-76
2022/05/19 07:30:36;;;;;;;36.47;32.97;;;23.90;56.40;;;;;;5085629;28;20461;-76
2022/05/19 07:33:04;;;;;;;43.57;39.23;;;24.00;56.60;;;;;;5090853;28;20825;-78
2022/05/19 07:35:31;;;;;;;64.17;52.53;;;24.10;56.60;;;;;;5088117;28;20529;-76
2022/05/19 07:37:59;;;;;;;36.27;33.00;;;24.20;56.50;;;;;;5089003;28;20553;-76
2022/05/19 07:40:26;;;;;;;37.80;35.07;;;24.30;56.50;;;;;;5091278;28;20834;-76
2022/05/19 07:42:53;;;;;;;32.10;30.10;;;24.40;56.10;;;;;;5105551;28;20476;-77
2022/05/19 07:45:20;;;;;;;34.07;31.73;;;24.50;55.90;;;;;;5094412;28;20472;-76
2022/05/19 07:47:47;;;;;;;33.57;31.30;;;24.70;55.50;;;;;;5086149;28;20480;-76
2022/05/19 07:50:14;;;;;;;31.77;29.93;;;24.70;55.70;;;;;;5080701;28;20547;-78
2022/05/19 07:52:41;;;;;;;32.50;30.50;;;24.80;55.80;;;;;;5096241;28;20539;-75
2022/05/19 07:55:10;;;;;;;33.20;31.30;;;24.80;55.80;;;;;;5086181;28;20484;-81
2022/05/19 07:57:38;;;;;;;31.40;29.50;;;24.90;55.80;;;;;;5108974;28;20908;-77
2022/05/19 08:00:07;;;;;;;32.10;30.10;;;25.00;56.10;;;;;;5095654;28;20465;-78
2022/05/19 08:02:33;;;;;;;34.87;32.53;;;25.10;56.00;;;;;;5095225;28;20466;-77
2022/05/19 08:05:00;;;;;;;34.57;32.60;;;25.10;56.00;;;;;;5083863;28;20480;-77
2022/05/19 08:07:27;;;;;;;34.53;32.63;;;25.30;55.50;;;;;;5085750;28;20454;-77
2022/05/19 08:15:36;;;;;;;33.17;31.00;;;25.60;55.50;;;;;;5089483;27;20480;-77
2022/05/19 08:18:05;;;;;;;35.90;33.80;;;25.80;55.10;;;;;;5070556;28;20469;-77
2022/05/19 08:20:32;;;;;;;35.70;33.47;;;25.90;54.90;;;;;;5089079;28;20462;-76
2022/05/19 08:23:00;;;;;;;32.90;30.80;;;26.00;54.40;;;;;;5071511;28;20458;-77
2022/05/19 08:25:30;;;;;;;33.70;31.67;;;26.00;54.60;;;;;;5079460;28;20477;-77
2022/05/19 08:28:01;;;;;;;33.30;31.40;;;26.20;54.30;;;;;;5085275;28;20934;-77
2022/05/19 08:30:32;;;;;;;37.00;34.83;;;26.30;54.10;;;;;;5082660;28;20467;-77
2022/05/19 08:33:00;;;;;;;34.27;32.27;;;26.40;54.20;;;;;;5099103;28;20842;-78
2022/05/19 08:38:28;;;;;;;32.93;31.03;;;26.60;53.80;;;;;;5088008;28;21129;-76
2022/05/19 08:41:07;;;;;;;36.33;34.23;;;26.70;53.90;;;;;;5070664;28;20978;-77
2022/05/19 08:43:44;;;;;;;37.17;34.97;;;26.90;53.50;;;;;;5097551;28;20455;-77
2022/05/19 08:46:24;;;;;;;35.10;33.00;;;27.00;53.60;;;;;;5097851;28;20652;-77
2022/05/19 08:48:55;;;;;;;35.43;33.40;;;27.20;52.90;;;;;;5091085;28;20942;-77
2022/05/19 08:51:24;;;;;;;33.70;31.60;;;27.30;52.80;;;;;;5088261;28;20591;-77
2022/05/19 08:53:51;;;;;;;36.30;33.87;;;27.30;52.70;;;;;;5070129;28;20472;-76
2022/05/19 08:56:26;;;;;;;35.73;33.53;;;27.40;52.60;;;;;;5076865;28;20458;-76
2022/05/19 08:59:06;;;;;;;33.13;31.03;;;27.60;52.60;;;;;;5079364;28;20442;-77
2022/05/19 09:01:41;;;;;;;32.67;30.77;;;27.60;52.40;;;;;;5088913;28;20950;-75
2022/05/19 09:04:22;;;;;;;33.87;31.77;;;27.80;51.80;;;;;;5088609;28;20453;-76
2022/05/19 09:09:56;;;;;;;33.53;30.80;;;28.00;51.70;;;;;;5088824;28;20505;-75
2022/05/19 09:12:23;;;;;;;34.13;31.93;;;28.10;51.40;;;;;;5084181;28;20471;-74
2022/05/19 09:14:52;;;;;;;36.43;34.03;;;28.30;51.20;;;;;;5097462;28;20476;-75
2022/05/19 09:17:25;;;;;;;36.40;34.03;;;28.50;50.50;;;;;;5094005;28;20472;-75
2022/05/19 09:19:56;;;;;;;34.20;32.20;;;28.60;49.90;;;;;;5089109;28;20507;-71
2022/05/19 09:22:26;;;;;;;34.23;32.13;;;28.60;49.90;;;;;;5092915;28;20465;-72
2022/05/19 09:24:54;;;;;;;33.57;31.43;;;28.70;49.80;;;;;;5084491;28;20473;-76
2022/05/19 09:27:23;;;;;;;37.30;35.00;;;28.90;49.80;;;;;;5107550;28;20455;-77
2022/05/19 09:29:55;;;;;;;38.63;36.60;;;29.00;50.00;;;;;;5079231;28;20538;-77
2022/05/19 09:32:26;;;;;;;35.93;33.60;;;29.00;49.70;;;;;;5069035;28;20525;-77
2022/05/19 09:35:02;;;;;;;34.13;31.83;;;29.00;49.70;;;;;;5083136;28;20489;-77
2022/05/19 09:37:37;;;;;;;35.40;33.20;;;29.20;49.40;;;;;;5096528;28;20460;-77
2022/05/19 09:40:17;;;;;;;34.07;32.10;;;29.30;48.90;;;;;;5092559;28;20455;-77
2022/05/19 09:42:53;;;;;;;34.00;31.90;;;29.40;49.10;;;;;;5103014;28;20453;-77
2022/05/19 09:45:24;;;;;;;36.40;34.20;;;29.60;48.60;;;;;;5081241;28;20488;-77
2022/05/19 09:47:53;;;;;;;36.83;34.53;;;29.50;49.10;;;;;;5085046;28;20456;-78
2022/05/19 09:50:24;;;;;;;33.60;31.67;;;29.60;49.10;;;;;;5106735;28;21080;-78
2022/05/19 09:52:52;;;;;;;35.17;33.00;;;29.70;49.10;;;;;;5112581;28;20899;-77
2022/05/19 09:55:24;;;;;;;35.60;33.40;;;29.70;49.20;;;;;;5102242;28;20481;-77
2022/05/19 09:57:58;;;;;;;39.90;37.50;;;29.80;49.10;;;;;;5092043;28;20544;-77
2022/05/19 10:00:38;;;;;;;35.37;33.17;;;29.90;47.70;;;;;;5092436;28;20849;-77
2022/05/19 10:03:11;;;;;;;39.00;36.90;;;29.90;48.10;;;;;;5108352;28;20550;-77
2022/05/19 10:05:46;;;;;;;38.53;36.07;;;30.00;47.60;;;;;;5099134;28;20986;-78
2022/05/19 10:08:16;;;;;;;39.87;37.57;;;29.90;47.60;;;;;;5111989;27;20525;-78
2022/05/19 10:10:55;;;;;;;36.27;34.10;;;29.90;47.90;;;;;;5102441;28;20841;-77
2022/05/19 10:13:27;;;;;;;37.00;34.87;;;30.00;48.50;;;;;;5087177;28;20463;-77
2022/05/19 10:16:01;;;;;;;37.93;35.53;;;30.10;48.10;;;;;;5104688;28;20872;-77
2022/05/19 10:18:39;;;;;;;34.43;32.20;;;30.20;48.00;;;;;;5108464;28;20453;-77
2022/05/19 10:21:23;;;;;;;37.30;35.10;;;30.30;48.10;;;;;;5072351;28;20458;-77
2022/05/19 10:24:21;;;;;;;34.67;32.43;;;30.20;47.60;;;;;;5071219;28;20827;-77
2022/05/19 10:31:02;;;;;;;33.87;31.87;;;30.10;48.20;;;;;;5098632;28;20460;-77
2022/05/19 10:32:50;;;;;;;36.10;33.90;;;30.00;48.10;;;;;;5038324;28;20993;-76
2022/05/19 10:35:23;;;;;;;33.73;31.40;;;30.20;48.40;;;;;;5075618;28;20588;-78
2022/05/19 10:38:01;;;;;;;37.07;34.77;;;30.20;49.00;;;;;;5089655;28;20452;-77
2022/05/19 10:40:41;;;;;;;35.87;33.50;;;30.10;48.90;;;;;;5091764;28;20450;-78
2022/05/19 10:43:24;;;;;;;37.90;35.70;;;30.20;49.00;;;;;;5084044;28;20535;-78
2022/05/19 10:45:53;;;;;;;36.60;34.00;;;30.40;49.00;;;;;;5091337;28;20478;-79
2022/05/19 10:48:41;;;;;;;37.53;35.30;;;30.20;49.50;;;;;;5099499;28;20543;-78
2022/05/19 10:51:12;;;;;;;34.73;32.73;;;30.10;49.70;;;;;;5103267;28;20463;-78
2022/05/19 10:54:04;;;;;;;38.17;35.97;;;30.00;50.30;;;;;;5094396;28;20816;-81
2022/05/19 10:56:58;;;;;;;34.23;31.93;;;30.00;49.30;;;;;;5068116;28;20454;-77
2022/05/19 10:59:41;;;;;;;36.30;34.20;;;30.10;49.00;;;;;;5087563;28;20481;-79
2022/05/19 11:02:30;;;;;;;35.57;33.10;;;30.30;49.10;;;;;;5070598;28;20458;-75
2022/05/19 11:05:35;;;;;;;35.90;33.60;;;30.40;48.70;;;;;;5088468;28;20469;-76
2022/05/19 11:08:11;;;;;;;36.70;34.50;;;30.40;48.70;;;;;;5071492;28;20882;-76
2022/05/19 11:10:44;;;;;;;36.10;33.90;;;30.50;48.40;;;;;;5087851;28;20480;-75
2022/05/19 11:13:31;;;;;;;38.90;36.33;;;30.60;48.30;;;;;;5078711;28;20963;-79
2022/05/19 11:16:11;;;;;;;37.33;35.10;;;30.50;48.80;;;;;;5082679;28;20477;-76
2022/05/19 11:18:50;;;;;;;38.93;36.40;;;30.50;48.80;;;;;;5071031;28;20470;-77
2022/05/19 11:21:24;;;;;;;36.83;34.40;;;30.50;48.80;;;;;;5088204;28;20453;-76
2022/05/19 11:23:56;;;;;;;35.60;33.20;;;30.90;48.10;;;;;;5089727;28;21157;-76
2022/05/19 11:26:27;;;;;;;37.97;35.70;;;30.80;48.40;;;;;;5071835;28;20461;-75
2022/05/19 11:29:03;;;;;;;39.00;36.70;;;31.00;47.60;;;;;;5080686;28;20477;-76
2022/05/19 11:31:39;;;;;;;38.70;36.27;;;31.10;48.00;;;;;;5090921;28;20480;-76
2022/05/19 11:34:16;;;;;;;39.10;36.73;;;31.20;48.00;;;;;;5085140;28;20460;-78
2022/05/19 11:36:50;;;;;;;35.70;32.93;;;31.30;48.10;;;;;;5090772;28;20457;-75
2022/05/19 11:39:23;;;;;;;36.70;34.50;;;31.40;47.60;;;;;;5078550;28;21051;-75
2022/05/19 11:41:51;;;;;;;37.90;35.60;;;31.60;47.60;;;;;;5090365;28;20877;-75
2022/05/19 11:44:23;;;;;;;38.83;36.37;;;31.70;46.50;;;;;;5085712;28;20484;-74
2022/05/19 11:46:59;;;;;;;39.10;36.70;;;31.60;47.20;;;;;;5073451;28;20473;-74
2022/05/19 11:55:20;;;;;;;37.47;35.30;;;31.80;46.30;;;;;;5088884;28;20477;-76
2022/05/19 11:57:55;;;;;;;34.53;32.03;;;31.90;46.10;;;;;;5092904;28;20457;-75
2022/05/19 12:00:29;;;;;;;35.30;33.20;;;31.90;46.20;;;;;;5088290;28;20449;-76
2022/05/19 12:03:02;;;;;;;38.50;35.60;;;31.90;45.90;;;;;;5095639;28;20465;-79
2022/05/19 12:05:33;;;;;;;41.37;38.47;;;31.90;45.90;;;;;;5086172;28;20829;-78
2022/05/19 12:08:13;;;;;;;38.10;35.60;;;32.00;46.20;;;;;;5081889;28;20836;-76
2022/05/19 12:10:44;;;;;;;39.63;36.97;;;31.90;46.90;;;;;;5082767;28;20588;-77
2022/05/19 12:13:12;;;;;;;40.87;38.27;;;31.90;47.40;;;;;;5081259;28;20550;-77
2022/05/19 12:15:50;;;;;;;37.30;34.70;;;32.00;47.40;;;;;;5075911;28;20556;-78
2022/05/19 12:18:36;;;;;;;35.57;33.27;;;32.10;47.10;;;;;;5085793;28;20538;-77
2022/05/19 12:21:41;;;;;;;37.00;34.80;;;32.20;46.00;;;;;;5087966;28;20449;-77
2022/05/19 12:24:13;;;;;;;37.20;35.10;;;32.10;46.00;;;;;;5052032;28;20484;-75
2022/05/19 12:26:52;;;;;;;35.77;33.50;;;32.00;46.20;;;;;;5081181;28;20876;-77
2022/05/19 12:29:40;;;;;;;44.80;42.50;;;32.00;45.90;;;;;;5080961;28;20473;-77
2022/05/19 12:32:10;;;;;;;38.80;36.37;;;32.20;45.80;;;;;;5083452;28;20454;-78
2022/05/19 12:34:43;;;;;;;42.53;39.83;;;32.00;45.90;;;;;;5085285;28;20847;-80
2022/05/19 12:37:36;;;;;;;36.93;34.83;;;32.00;46.10;;;;;;5085403;28;20820;-80
2022/05/19 12:40:38;;;;;;;37.20;34.60;;;32.10;46.70;;;;;;5071547;28;20529;-79
2022/05/19 12:43:31;;;;;;;37.40;35.10;;;32.00;45.80;;;;;;5075305;28;20458;-86
2022/05/19 12:46:00;;;;;;;36.77;34.50;;;31.60;47.10;;;;;;5083840;28;20473;-78
2022/05/19 12:49:13;;;;;;;37.70;35.20;;;31.60;47.90;;;;;;5092874;28;20489;-78
2022/05/19 12:51:58;;;;;;;39.23;36.60;;;31.90;47.40;;;;;;5014476;28;20489;-78
2022/05/19 12:54:27;;;;;;;37.17;34.77;;;32.10;46.80;;;;;;5077758;28;20893;-78
2022/05/19 12:57:12;;;;;;;36.77;33.83;;;32.20;46.70;;;;;;5087316;28;20457;-78
2022/05/19 12:59:46;;;;;;;40.90;38.40;;;32.40;46.40;;;;;;5069174;28;20506;-75
2022/05/19 13:02:23;;;;;;;37.33;35.07;;;32.70;45.00;;;;;;5110365;28;20540;-80
2022/05/19 13:04:55;;;;;;;38.10;35.90;;;32.60;45.90;;;;;;5087909;28;20492;-81
2022/05/19 13:07:25;;;;;;;40.07;37.50;;;32.50;45.10;;;;;;5086866;28;20465;-79
2022/05/19 13:10:00;;;;;;;35.83;33.60;;;32.20;45.80;;;;;;5069511;28;20569;-80